sensor_id;sensor_type;location;lat;lon;timestamp;pressure;altitude;pressure_sealevel;temperature;humidity
67740;BME280;54536;50.090;14.420;2023-03-20T00:01:21;99523.59;;;13.24;54.99
67740;BME280;54536;50.090;14.420;2023-03-20T00:03:52;99523.31;;;13.27;55.04
67740;BME280;54536;50.090;14.420;2023-03-20T00:06:21;99517.25;;;13.17;55.60
67740;BME280;54536;50.090;14.420;2023-03-20T00:08:50;99529.47;;;13.18;55.74
67740;BME280;54536;50.090;14.420;2023-03-20T00:14:04;99533.28;;;12.87;56.69
67740;BME280;54536;50.090;14.420;2023-03-20T00:16:34;99532.91;;;12.82;56.24
67740;BME280;54536;50.090;14.420;2023-03-20T00:19:01;99534.16;;;12.78;56.59
67740;BME280;54536;50.090;14.420;2023-03-20T00:21:29;99536.38;;;13.01;55.85
67740;BME280;54536;50.090;14.420;2023-03-20T00:23:56;99536.84;;;13.14;55.48
67740;BME280;54536;50.090;14.420;2023-03-20T00:26:26;99539.66;;;13.12;55.72
67740;BME280;54536;50.090;14.420;2023-03-20T00:28:53;99537.09;;;13.03;56.32
67740;BME280;54536;50.090;14.420;2023-03-20T00:31:24;99536.25;;;12.75;56.96
67740;BME280;54536;50.090;14.420;2023-03-20T00:34:00;99533.28;;;12.87;56.91
67740;BME280;54536;50.090;14.420;2023-03-20T00:36:27;99521.19;;;12.85;56.81
67740;BME280;54536;50.090;14.420;2023-03-20T00:38:54;99526.56;;;12.75;57.42
67740;BME280;54536;50.090;14.420;2023-03-20T00:44:23;99525.47;;;12.68;57.69
67740;BME280;54536;50.090;14.420;2023-03-20T00:46:57;99526.97;;;12.43;58.73
67740;BME280;54536;50.090;14.420;2023-03-20T00:49:30;99522.44;;;12.63;57.75
67740;BME280;54536;50.090;14.420;2023-03-20T00:51:57;99527.19;;;12.59;58.00
67740;BME280;54536;50.090;14.420;2023-03-20T00:54:24;99531.41;;;12.43;58.10
67740;BME280;54536;50.090;14.420;2023-03-20T00:57:00;99529.91;;;12.40;58.91
67740;BME280;54536;50.090;14.420;2023-03-20T00:59:32;99527.00;;;12.33;58.78
67740;BME280;54536;50.090;14.420;2023-03-20T01:02:01;99525.59;;;12.39;58.97
67740;BME280;54536;50.090;14.420;2023-03-20T01:04:38;99534.47;;;12.38;58.28
67740;BME280;54536;50.090;14.420;2023-03-20T01:07:06;99523.81;;;12.39;58.55
67740;BME280;54536;50.090;14.420;2023-03-20T01:09:32;99530.16;;;12.47;58.19
67740;BME280;54536;50.090;14.420;2023-03-20T01:12:02;99528.34;;;12.47;58.15
67740;BME280;54536;50.090;14.420;2023-03-20T01:14:29;99534.72;;;12.45;58.40
67740;BME280;54536;50.090;14.420;2023-03-20T01:16:55;99523.94;;;12.38;58.97
67740;BME280;54536;50.090;14.420;2023-03-20T01:19:21;99535.19;;;12.40;58.93
67740;BME280;54536;50.090;14.420;2023-03-20T01:21:47;99531.75;;;12.30;59.08
67740;BME280;54536;50.090;14.420;2023-03-20T01:24:13;99536.28;;;12.37;58.24
67740;BME280;54536;50.090;14.420;2023-03-20T01:26:42;99544.81;;;12.12;59.37
67740;BME280;54536;50.090;14.420;2023-03-20T01:29:22;99529.38;;;12.27;58.77
67740;BME280;54536;50.090;14.420;2023-03-20T01:31:50;99538.69;;;12.21;59.39
67740;BME280;54536;50.090;14.420;2023-03-20T01:34:17;99529.38;;;12.27;58.63
67740;BME280;54536;50.090;14.420;2023-03-20T01:36:53;99533.25;;;12.32;58.45
67740;BME280;54536;50.090;14.420;2023-03-20T01:39:32;99527.88;;;12.24;58.72
67740;BME280;54536;50.090;14.420;2023-03-20T01:42:01;99527.88;;;12.24;58.52
67740;BME280;54536;50.090;14.420;2023-03-20T01:44:30;99528.03;;;12.13;59.28
67740;BME280;54536;50.090;14.420;2023-03-20T01:46:57;99530.25;;;12.17;59.54
67740;BME280;54536;50.090;14.420;2023-03-20T01:51:51;99533.75;;;11.99;59.46
67740;BME280;54536;50.090;14.420;2023-03-20T01:54:26;99529.47;;;11.88;60.42
67740;BME280;54536;50.090;14.420;2023-03-20T01:57:03;99531.00;;;12.00;59.42
67740;BME280;54536;50.090;14.420;2023-03-20T01:59:42;99532.50;;;11.73;59.69
67740;BME280;54536;50.090;14.420;2023-03-20T02:02:14;99531.00;;;11.71;60.56
67740;BME280;54536;50.090;14.420;2023-03-20T02:04:47;99536.94;;;11.83;60.23
67740;BME280;54536;50.090;14.420;2023-03-20T02:07:19;99525.31;;;11.85;59.95
67740;BME280;54536;50.090;14.420;2023-03-20T02:09:48;99532.09;;;11.78;60.71
67740;BME280;54536;50.090;14.420;2023-03-20T02:12:16;99523.94;;;11.71;60.73
67740;BME280;54536;50.090;14.420;2023-03-20T02:14:44;99530.28;;;11.69;60.35
67740;BME280;54536;50.090;14.420;2023-03-20T02:17:12;99525.19;;;11.77;60.14
67740;BME280;54536;50.090;14.420;2023-03-20T02:20:21;99530.59;;;11.85;60.31
67740;BME280;54536;50.090;14.420;2023-03-20T02:22:44;99532.66;;;11.53;61.36
67740;BME280;54536;50.090;14.420;2023-03-20T02:52:41;99527.81;;;11.48;60.44
67740;BME280;54536;50.090;14.420;2023-03-20T02:57:58;99528.22;;;11.43;60.52
67740;BME280;54536;50.090;14.420;2023-03-20T03:00:37;99529.91;;;11.35;60.94
67740;BME280;54536;50.090;14.420;2023-03-20T03:03:11;99525.84;;;11.21;61.53
67740;BME280;54536;50.090;14.420;2023-03-20T03:05:48;99526.00;;;11.29;61.16
67740;BME280;54536;50.090;14.420;2023-03-20T03:08:22;99524.88;;;11.02;62.16
67740;BME280;54536;50.090;14.420;2023-03-20T03:10:56;99523.59;;;10.87;62.48
67740;BME280;54536;50.090;14.420;2023-03-20T03:13:28;99518.38;;;11.07;61.78
67740;BME280;54536;50.090;14.420;2023-03-20T03:15:59;99526.38;;;11.15;61.93
67740;BME280;54536;50.090;14.420;2023-03-20T03:18:29;99525.00;;;11.11;62.05
67740;BME280;54536;50.090;14.420;2023-03-20T03:20:59;99522.78;;;10.96;62.11
67740;BME280;54536;50.090;14.420;2023-03-20T03:23:48;99521.94;;;10.96;62.54
67740;BME280;54536;50.090;14.420;2023-03-20T03:26:20;99524.34;;;11.09;61.91
67740;BME280;54536;50.090;14.420;2023-03-20T03:28:55;99524.06;;;11.12;61.94
67740;BME280;54536;50.090;14.420;2023-03-20T03:31:23;99522.09;;;11.04;62.11
67740;BME280;54536;50.090;14.420;2023-03-20T03:33:57;99526.69;;;11.02;62.34
67740;BME280;54536;50.090;14.420;2023-03-20T03:36:47;99526.06;;;10.89;62.07
67740;BME280;54536;50.090;14.420;2023-03-20T03:39:40;99526.22;;;10.87;62.42
67740;BME280;54536;50.090;14.420;2023-03-20T03:42:25;99523.06;;;10.93;62.24
67740;BME280;54536;50.090;14.420;2023-03-20T03:44:58;99528.19;;;11.05;61.60
67740;BME280;54536;50.090;14.420;2023-03-20T03:47:51;99533.28;;;10.87;63.11
67740;BME280;54536;50.090;14.420;2023-03-20T03:53:18;99530.09;;;10.83;62.50
67740;BME280;54536;50.090;14.420;2023-03-20T03:55:51;99533.16;;;10.98;62.08
67740;BME280;54536;50.090;14.420;2023-03-20T03:58:25;99528.56;;;10.81;62.96
67740;BME280;54536;50.090;14.420;2023-03-20T04:00:55;99543.81;;;10.96;62.04
67740;BME280;54536;50.090;14.420;2023-03-20T04:03:28;99540.41;;;11.15;61.52
67740;BME280;54536;50.090;14.420;2023-03-20T04:05:58;99534.28;;;11.05;62.30
67740;BME280;54536;50.090;14.420;2023-03-20T04:08:26;99543.59;;;11.09;61.82
67740;BME280;54536;50.090;14.420;2023-03-20T04:10:52;99536.50;;;11.00;62.27
67740;BME280;54536;50.090;14.420;2023-03-20T04:13:18;99548.31;;;11.15;62.91
67740;BME280;54536;50.090;14.420;2023-03-20T04:15:44;99552.00;;;11.03;62.95
67740;BME280;54536;50.090;14.420;2023-03-20T04:18:15;99539.41;;;10.97;62.52
67740;BME280;54536;50.090;14.420;2023-03-20T04:20:43;99545.63;;;10.96;62.54
67740;BME280;54536;50.090;14.420;2023-03-20T04:23:09;99546.03;;;11.01;62.08
67740;BME280;54536;50.090;14.420;2023-03-20T04:25:36;99546.75;;;11.03;62.11
67740;BME280;54536;50.090;14.420;2023-03-20T04:28:03;99548.13;;;10.97;63.19
67740;BME280;54536;50.090;14.420;2023-03-20T04:30:29;99549.38;;;11.03;62.36
67740;BME280;54536;50.090;14.420;2023-03-20T04:32:55;99542.03;;;10.97;62.96
67740;BME280;54536;50.090;14.420;2023-03-20T04:35:21;99545.09;;;11.02;62.25
67740;BME280;54536;50.090;14.420;2023-03-20T04:37:47;99539.94;;;11.00;62.61
67740;BME280;54536;50.090;14.420;2023-03-20T04:40:13;99544.53;;;11.08;61.73
67740;BME280;54536;50.090;14.420;2023-03-20T04:42:40;99544.78;;;10.86;63.26
67740;BME280;54536;50.090;14.420;2023-03-20T04:45:07;99542.53;;;10.81;63.27
67740;BME280;54536;50.090;14.420;2023-03-20T04:47:33;99548.25;;;10.86;62.91
67740;BME280;54536;50.090;14.420;2023-03-20T04:50:00;99548.50;;;10.83;62.70
67740;BME280;54536;50.090;14.420;2023-03-20T04:52:26;99554.28;;;10.77;63.19
67740;BME280;54536;50.090;14.420;2023-03-20T04:54:52;99557.75;;;10.77;63.39
67740;BME280;54536;50.090;14.420;2023-03-20T04:57:18;99560.25;;;10.89;62.64
67740;BME280;54536;50.090;14.420;2023-03-20T04:59:44;99554.09;;;10.99;62.26
67740;BME280;54536;50.090;14.420;2023-03-20T05:02:10;99560.72;;;10.94;62.38
67740;BME280;54536;50.090;14.420;2023-03-20T05:04:42;99559.06;;;11.02;62.54
67740;BME280;54536;50.090;14.420;2023-03-20T05:07:08;99559.19;;;11.01;62.08
67740;BME280;54536;50.090;14.420;2023-03-20T05:09:35;99559.06;;;10.93;62.46
67740;BME280;54536;50.090;14.420;2023-03-20T05:12:01;99564.47;;;11.01;62.05
67740;BME280;54536;50.090;14.420;2023-03-20T05:14:27;99565.81;;;10.86;62.46
67740;BME280;54536;50.090;14.420;2023-03-20T05:16:53;99565.69;;;10.87;62.89
67740;BME280;54536;50.090;14.420;2023-03-20T05:19:19;99563.63;;;11.00;62.14
67740;BME280;54536;50.090;14.420;2023-03-20T05:21:45;99562.28;;;11.06;61.51
67740;BME280;54536;50.090;14.420;2023-03-20T05:24:12;99563.38;;;11.13;61.84
67740;BME280;54536;50.090;14.420;2023-03-20T05:26:38;99562.38;;;11.05;62.59
67740;BME280;54536;50.090;14.420;2023-03-20T05:29:04;99571.69;;;11.09;61.66
67740;BME280;54536;50.090;14.420;2023-03-20T05:31:30;99564.59;;;10.99;62.47
67740;BME280;54536;50.090;14.420;2023-03-20T05:33:56;99561.44;;;11.06;62.31
67740;BME280;54536;50.090;14.420;2023-03-20T05:36:22;99565.16;;;11.03;61.66
67740;BME280;54536;50.090;14.420;2023-03-20T05:38:49;99569.56;;;10.93;61.88
67740;BME280;54536;50.090;14.420;2023-03-20T05:41:15;99564.06;;;10.96;62.32
67740;BME280;54536;50.090;14.420;2023-03-20T05:43:41;99565.84;;;11.05;62.16
67740;BME280;54536;50.090;14.420;2023-03-20T05:46:07;99563.78;;;10.99;62.23
67740;BME280;54536;50.090;14.420;2023-03-20T05:48:33;99566.72;;;11.06;61.71
67740;BME280;54536;50.090;14.420;2023-03-20T05:51:00;99567.00;;;11.12;62.12
67740;BME280;54536;50.090;14.420;2023-03-20T05:53:26;99582.81;;;11.22;61.85
67740;BME280;54536;50.090;14.420;2023-03-20T05:55:52;99580.00;;;11.14;61.21
67740;BME280;54536;50.090;14.420;2023-03-20T05:58:19;99582.50;;;11.06;61.80
67740;BME280;54536;50.090;14.420;2023-03-20T06:00:45;99583.03;;;10.99;61.86
67740;BME280;54536;50.090;14.420;2023-03-20T06:03:11;99582.63;;;11.04;61.18
67740;BME280;54536;50.090;14.420;2023-03-20T06:05:38;99588.34;;;11.19;61.05
67740;BME280;54536;50.090;14.420;2023-03-20T06:08:04;99595.13;;;11.12;61.27
67740;BME280;54536;50.090;14.420;2023-03-20T06:10:30;99593.84;;;11.06;61.53
67740;BME280;54536;50.090;14.420;2023-03-20T06:12:58;99594.41;;;11.10;61.42
67740;BME280;54536;50.090;14.420;2023-03-20T06:15:26;99594.94;;;11.04;62.60
67740;BME280;54536;50.090;14.420;2023-03-20T06:17:54;99594.00;;;11.14;62.13
67740;BME280;54536;50.090;14.420;2023-03-20T06:20:21;99599.91;;;10.97;62.20
67740;BME280;54536;50.090;14.420;2023-03-20T06:22:47;99602.44;;;11.18;62.38
67740;BME280;54536;50.090;14.420;2023-03-20T06:25:13;99609.69;;;11.25;61.54
67740;BME280;54536;50.090;14.420;2023-03-20T06:27:39;99606.22;;;11.25;62.30
67740;BME280;54536;50.090;14.420;2023-03-20T06:30:06;99610.25;;;11.29;61.09
67740;BME280;54536;50.090;14.420;2023-03-20T06:32:33;99613.72;;;11.30;61.25
67740;BME280;54536;50.090;14.420;2023-03-20T06:34:58;99611.91;;;11.30;60.90
67740;BME280;54536;50.090;14.420;2023-03-20T06:37:25;99615.81;;;11.36;61.88
67740;BME280;54536;50.090;14.420;2023-03-20T06:39:51;99618.81;;;11.21;62.36
67740;BME280;54536;50.090;14.420;2023-03-20T06:42:17;99619.00;;;11.39;61.79
67740;BME280;54536;50.090;14.420;2023-03-20T06:44:44;99618.00;;;11.40;61.72
67740;BME280;54536;50.090;14.420;2023-03-20T06:47:10;99625.53;;;11.45;61.07
67740;BME280;54536;50.090;14.420;2023-03-20T06:49:36;99625.81;;;11.52;61.60
67740;BME280;54536;50.090;14.420;2023-03-20T06:52:03;99625.91;;;11.40;60.88
67740;BME280;54536;50.090;14.420;2023-03-20T06:54:29;99634.31;;;11.24;61.33
67740;BME280;54536;50.090;14.420;2023-03-20T06:56:56;99632.16;;;11.39;61.59
67740;BME280;54536;50.090;14.420;2023-03-20T06:59:22;99631.06;;;11.42;61.45
67740;BME280;54536;50.090;14.420;2023-03-20T07:01:48;99632.84;;;11.32;61.86
67740;BME280;54536;50.090;14.420;2023-03-20T07:04:15;99625.38;;;11.46;62.31
67740;BME280;54536;50.090;14.420;2023-03-20T07:06:42;99634.22;;;11.36;62.24
67740;BME280;54536;50.090;14.420;2023-03-20T07:09:08;99644.19;;;11.32;63.62
67740;BME280;54536;50.090;14.420;2023-03-20T07:11:35;99638.94;;;11.32;63.34
67740;BME280;54536;50.090;14.420;2023-03-20T07:14:01;99643.97;;;11.45;63.06
67740;BME280;54536;50.090;14.420;2023-03-20T07:16:28;99644.50;;;11.48;62.99
67740;BME280;54536;50.090;14.420;2023-03-20T07:18:54;99640.09;;;11.59;63.33
67740;BME280;54536;50.090;14.420;2023-03-20T07:21:22;99635.22;;;11.44;64.84
67740;BME280;54536;50.090;14.420;2023-03-20T07:23:48;99631.22;;;11.60;65.37
67740;BME280;54536;50.090;14.420;2023-03-20T07:26:14;99633.03;;;11.59;65.25
67740;BME280;54536;50.090;14.420;2023-03-20T07:28:40;99633.03;;;11.59;65.10
67740;BME280;54536;50.090;14.420;2023-03-20T07:31:20;99635.38;;;11.62;64.54
67740;BME280;54536;50.090;14.420;2023-03-20T07:33:47;99639.41;;;11.66;64.50
67740;BME280;54536;50.090;14.420;2023-03-20T07:36:13;99637.84;;;11.54;64.95
67740;BME280;54536;50.090;14.420;2023-03-20T07:38:40;99644.81;;;11.55;63.84
67740;BME280;54536;50.090;14.420;2023-03-20T07:41:06;99648.50;;;11.43;64.66
67740;BME280;54536;50.090;14.420;2023-03-20T07:43:33;99642.19;;;11.65;64.94
67740;BME280;54536;50.090;14.420;2023-03-20T07:46:04;99639.56;;;11.65;64.93
67740;BME280;54536;50.090;14.420;2023-03-20T07:48:31;99643.56;;;11.69;65.92
67740;BME280;54536;50.090;14.420;2023-03-20T07:50:57;99648.84;;;11.79;65.70
67740;BME280;54536;50.090;14.420;2023-03-20T07:53:24;99652.78;;;11.84;65.07
67740;BME280;54536;50.090;14.420;2023-03-20T07:55:50;99655.69;;;11.91;64.89
67740;BME280;54536;50.090;14.420;2023-03-20T07:58:16;99654.94;;;11.79;65.59
67740;BME280;54536;50.090;14.420;2023-03-20T08:00:42;99662.50;;;11.93;65.38
67740;BME280;54536;50.090;14.420;2023-03-20T08:03:09;99663.59;;;11.91;65.34
67740;BME280;54536;50.090;14.420;2023-03-20T08:05:36;99658.88;;;11.94;64.68
67740;BME280;54536;50.090;14.420;2023-03-20T08:08:03;99656.38;;;12.03;65.14
67740;BME280;54536;50.090;14.420;2023-03-20T08:10:29;99659.16;;;12.01;65.29
67740;BME280;54536;50.090;14.420;2023-03-20T08:12:55;99662.44;;;12.23;64.70
67740;BME280;54536;50.090;14.420;2023-03-20T08:15:22;99655.97;;;12.17;64.16
67740;BME280;54536;50.090;14.420;2023-03-20T08:17:48;99662.31;;;12.24;64.65
67740;BME280;54536;50.090;14.420;2023-03-20T08:20:20;99659.78;;;12.42;63.14
67740;BME280;54536;50.090;14.420;2023-03-20T08:22:46;99665.63;;;12.36;64.17
67740;BME280;54536;50.090;14.420;2023-03-20T08:25:15;99657.03;;;12.44;63.19
67740;BME280;54536;50.090;14.420;2023-03-20T08:27:41;99661.88;;;12.48;63.31
67740;BME280;54536;50.090;14.420;2023-03-20T08:30:09;99661.59;;;12.41;63.56
67740;BME280;54536;50.090;14.420;2023-03-20T08:32:35;99666.44;;;12.65;62.89
67740;BME280;54536;50.090;14.420;2023-03-20T08:35:03;99652.50;;;12.73;63.04
67740;BME280;54536;50.090;14.420;2023-03-20T08:37:30;99656.25;;;12.71;62.31
67740;BME280;54536;50.090;14.420;2023-03-20T08:39:56;99657.91;;;12.72;62.46
67740;BME280;54536;50.090;14.420;2023-03-20T08:42:23;99655.63;;;12.96;62.14
67740;BME280;54536;50.090;14.420;2023-03-20T08:44:50;99656.63;;;12.95;61.90
67740;BME280;54536;50.090;14.420;2023-03-20T08:47:17;99658.59;;;13.11;61.05
67740;BME280;54536;50.090;14.420;2023-03-20T08:49:43;99657.34;;;13.15;61.53
67740;BME280;54536;50.090;14.420;2023-03-20T08:52:15;99658.56;;;13.21;61.65
67740;BME280;54536;50.090;14.420;2023-03-20T08:54:42;99652.44;;;13.30;60.81
67740;BME280;54536;50.090;14.420;2023-03-20T08:57:08;99649.03;;;13.47;61.09
67740;BME280;54536;50.090;14.420;2023-03-20T08:59:35;99650.44;;;13.59;61.02
67740;BME280;54536;50.090;14.420;2023-03-20T09:02:01;99646.63;;;13.72;60.14
67740;BME280;54536;50.090;14.420;2023-03-20T09:04:28;99647.22;;;13.66;60.56
67740;BME280;54536;50.090;14.420;2023-03-20T09:06:54;99641.72;;;13.95;59.28
67740;BME280;54536;50.090;14.420;2023-03-20T09:09:22;99640.50;;;14.07;58.74
67740;BME280;54536;50.090;14.420;2023-03-20T09:11:58;99646.78;;;14.06;59.42
67740;BME280;54536;50.090;14.420;2023-03-20T09:14:26;99640.84;;;14.12;58.64
67740;BME280;54536;50.090;14.420;2023-03-20T09:16:53;99640.09;;;14.20;58.38
67740;BME280;54536;50.090;14.420;2023-03-20T09:19:21;99640.97;;;14.28;58.37
67740;BME280;54536;50.090;14.420;2023-03-20T09:21:48;99638.03;;;14.32;57.80
67740;BME280;54536;50.090;14.420;2023-03-20T09:24:14;99637.19;;;14.31;58.19
67740;BME280;54536;50.090;14.420;2023-03-20T09:26:41;99629.53;;;14.46;57.60
67740;BME280;54536;50.090;14.420;2023-03-20T09:29:08;99630.06;;;14.49;57.88
67740;BME280;54536;50.090;14.420;2023-03-20T09:31:35;99630.66;;;14.61;57.75
67740;BME280;54536;50.090;14.420;2023-03-20T09:34:02;99628.56;;;14.73;57.55
67740;BME280;54536;50.090;14.420;2023-03-20T09:36:28;99624.56;;;14.95;56.97
67740;BME280;54536;50.090;14.420;2023-03-20T09:38:54;99623.59;;;15.04;56.66
67740;BME280;54536;50.090;14.420;2023-03-20T09:41:23;99631.06;;;15.09;56.07
67740;BME280;54536;50.090;14.420;2023-03-20T09:47:09;99616.91;;;15.34;55.72
67740;BME280;54536;50.090;14.420;2023-03-20T09:49:42;99620.56;;;15.41;55.55
67740;BME280;54536;50.090;14.420;2023-03-20T09:52:30;99615.63;;;15.55;55.59
67740;BME280;54536;50.090;14.420;2023-03-20T09:55:07;99618.13;;;15.64;54.03
67740;BME280;54536;50.090;14.420;2023-03-20T09:57:49;99611.91;;;15.74;53.28
67740;BME280;54536;50.090;14.420;2023-03-20T10:00:23;99615.19;;;15.76;52.85
67740;BME280;54536;50.090;14.420;2023-03-20T10:03:00;99600.81;;;15.86;52.50
67740;BME280;54536;50.090;14.420;2023-03-20T10:05:38;99602.28;;;15.89;51.07
67740;BME280;54536;50.090;14.420;2023-03-20T10:08:13;99606.91;;;15.95;50.62
67740;BME280;54536;50.090;14.420;2023-03-20T10:18:42;99597.94;;;16.37;47.86
67740;BME280;54536;50.090;14.420;2023-03-20T10:21:16;99594.94;;;16.40;48.65
67740;BME280;54536;50.090;14.420;2023-03-20T10:24:04;99591.91;;;16.59;47.65
67740;BME280;54536;50.090;14.420;2023-03-20T10:26:34;99597.38;;;16.66;46.50
67740;BME280;54536;50.090;14.420;2023-03-20T10:29:10;99576.13;;;16.66;45.93
67740;BME280;54536;50.090;14.420;2023-03-20T10:32:34;99585.91;;;16.82;46.87
67740;BME280;54536;50.090;14.420;2023-03-20T10:35:08;99579.84;;;16.96;45.91
67740;BME280;54536;50.090;14.420;2023-03-20T10:40:34;99595.91;;;17.11;46.34
67740;BME280;54536;50.090;14.420;2023-03-20T10:43:28;99579.84;;;17.04;43.91
67740;BME280;54536;50.090;14.420;2023-03-20T10:46:09;99578.47;;;17.17;43.60
67740;BME280;54536;50.090;14.420;2023-03-20T10:48:56;99580.16;;;17.32;43.31
67740;BME280;54536;50.090;14.420;2023-03-20T10:51:52;99580.38;;;17.23;43.59
67740;BME280;54536;50.090;14.420;2023-03-20T10:56:55;99576.41;;;17.27;44.07
67740;BME280;54536;50.090;14.420;2023-03-20T10:59:26;99569.31;;;17.42;43.13
67740;BME280;54536;50.090;14.420;2023-03-20T11:01:54;99578.63;;;17.69;43.79
67740;BME280;54536;50.090;14.420;2023-03-20T11:04:21;99563.44;;;17.78;42.31
67740;BME280;54536;50.090;14.420;2023-03-20T11:09:39;99569.84;;;18.07;42.74
67740;BME280;54536;50.090;14.420;2023-03-20T11:12:11;99565.97;;;17.94;42.67
67740;BME280;54536;50.090;14.420;2023-03-20T11:14:39;99570.91;;;17.83;43.28
67740;BME280;54536;50.090;14.420;2023-03-20T11:17:05;99566.31;;;17.91;43.10
67740;BME280;54536;50.090;14.420;2023-03-20T11:19:35;99560.06;;;17.84;43.21
67740;BME280;54536;50.090;14.420;2023-03-20T11:24:55;99561.59;;;17.78;43.54
67740;BME280;54536;50.090;14.420;2023-03-20T11:27:26;99558.16;;;17.70;43.70
67740;BME280;54536;50.090;14.420;2023-03-20T11:29:55;99560.00;;;17.69;43.78
67740;BME280;54536;50.090;14.420;2023-03-20T11:32:32;99550.91;;;17.64;43.60
67740;BME280;54536;50.090;14.420;2023-03-20T11:37:53;99553.19;;;17.67;42.71
67740;BME280;54536;50.090;14.420;2023-03-20T11:40:31;99556.59;;;17.75;41.90
67740;BME280;54536;50.090;14.420;2023-03-20T11:45:37;99543.47;;;17.82;42.31
67740;BME280;54536;50.090;14.420;2023-03-20T11:48:07;99545.28;;;17.82;41.56
67740;BME280;54536;50.090;14.420;2023-03-20T11:50:51;99542.00;;;17.94;41.95
67740;BME280;54536;50.090;14.420;2023-03-20T11:56:20;99531.91;;;18.42;41.78
67740;BME280;54536;50.090;14.420;2023-03-20T11:59:12;99535.09;;;18.23;40.62
67740;BME280;54536;50.090;14.420;2023-03-20T12:01:52;99516.38;;;18.31;40.81
67740;BME280;54536;50.090;14.420;2023-03-20T12:04:34;99532.53;;;18.15;41.45
67740;BME280;54536;50.090;14.420;2023-03-20T12:07:15;99527.09;;;18.23;42.20
67740;BME280;54536;50.090;14.420;2023-03-20T12:09:56;99517.84;;;18.19;41.68
67740;BME280;54536;50.090;14.420;2023-03-20T12:15:41;99526.06;;;17.94;41.35
67740;BME280;54536;50.090;14.420;2023-03-20T12:18:34;99522.31;;;17.89;42.39
67740;BME280;54536;50.090;14.420;2023-03-20T12:28:50;99552.31;;;17.51;43.06
67740;BME280;54536;50.090;14.420;2023-03-20T12:34:20;99567.03;;;17.08;46.85
67740;BME280;54536;50.090;14.420;2023-03-20T12:36:49;99570.91;;;16.97;45.89
67740;BME280;54536;50.090;14.420;2023-03-20T12:39:23;99564.94;;;16.95;45.97
67740;BME280;54536;50.090;14.420;2023-03-20T12:47:28;99535.47;;;18.49;40.57
67740;BME280;54536;50.090;14.420;2023-03-20T13:01:57;99526.19;;;18.16;41.88
67740;BME280;54536;50.090;14.420;2023-03-20T13:10:56;99526.84;;;17.80;42.57
67740;BME280;54536;50.090;14.420;2023-03-20T13:16:11;99521.41;;;17.50;42.75
67740;BME280;54536;50.090;14.420;2023-03-20T13:21:23;99518.44;;;17.45;43.85
67740;BME280;54536;50.090;14.420;2023-03-20T13:29:58;99505.13;;;17.30;45.13
67740;BME280;54536;50.090;14.420;2023-03-20T13:35:00;99491.94;;;17.37;45.48
67740;BME280;54536;50.090;14.420;2023-03-20T13:37:40;99486.78;;;17.36;45.55
67740;BME280;54536;50.090;14.420;2023-03-20T13:40:25;99485.56;;;17.46;45.62
67740;BME280;54536;50.090;14.420;2023-03-20T13:43:20;99481.19;;;17.53;45.34
67740;BME280;54536;50.090;14.420;2023-03-20T13:46:36;99477.00;;;17.74;45.28
67740;BME280;54536;50.090;14.420;2023-03-20T13:49:14;99472.00;;;17.79;44.95
67740;BME280;54536;50.090;14.420;2023-03-20T13:52:14;99469.97;;;17.81;44.29
67740;BME280;54536;50.090;14.420;2023-03-20T13:55:05;99468.25;;;17.88;44.28
67740;BME280;54536;50.090;14.420;2023-03-20T14:00:56;99465.69;;;17.95;43.44
67740;BME280;54536;50.090;14.420;2023-03-20T14:03:35;99462.19;;;17.94;43.66
67740;BME280;54536;50.090;14.420;2023-03-20T14:07:00;99460.28;;;18.03;43.82
67740;BME280;54536;50.090;14.420;2023-03-20T14:09:01;99460.66;;;18.00;43.58
67740;BME280;54536;50.090;14.420;2023-03-20T14:11:30;99462.28;;;18.01;43.70
67740;BME280;54536;50.090;14.420;2023-03-20T14:14:39;99450.91;;;18.07;43.96
67740;BME280;54536;50.090;14.420;2023-03-20T14:17:41;99457.63;;;18.03;42.17
67740;BME280;54536;50.090;14.420;2023-03-20T14:20:26;99453.41;;;17.94;41.91
67740;BME280;54536;50.090;14.420;2023-03-20T14:22:56;99451.66;;;18.01;41.97
67740;BME280;54536;50.090;14.420;2023-03-20T14:25:24;99464.69;;;17.96;41.49
67740;BME280;54536;50.090;14.420;2023-03-20T14:27:58;99459.63;;;18.01;41.11
67740;BME280;54536;50.090;14.420;2023-03-20T14:33:05;99455.69;;;17.97;38.75
67740;BME280;54536;50.090;14.420;2023-03-20T14:35:38;99461.22;;;17.95;37.92
67740;BME280;54536;50.090;14.420;2023-03-20T14:48:53;99464.69;;;18.25;36.46
67740;BME280;54536;50.090;14.420;2023-03-20T14:51:21;99454.50;;;18.14;36.45
67740;BME280;54536;50.090;14.420;2023-03-20T14:53:56;99452.78;;;18.21;36.66
67740;BME280;54536;50.090;14.420;2023-03-20T14:56:30;99456.91;;;18.09;36.78
67740;BME280;54536;50.090;14.420;2023-03-20T14:59:05;99447.81;;;18.18;37.21
67740;BME280;54536;50.090;14.420;2023-03-20T15:04:26;99443.41;;;18.11;37.22
67740;BME280;54536;50.090;14.420;2023-03-20T15:09:26;99445.25;;;17.95;37.62
67740;BME280;54536;50.090;14.420;2023-03-20T15:11:57;99450.19;;;17.98;39.26
67740;BME280;54536;50.090;14.420;2023-03-20T15:14:39;99444.41;;;17.95;38.85
67740;BME280;54536;50.090;14.420;2023-03-20T15:17:38;99437.88;;;17.97;38.98
67740;BME280;54536;50.090;14.420;2023-03-20T15:20:34;99443.41;;;17.96;39.80
67740;BME280;54536;50.090;14.420;2023-03-20T15:23:01;99434.16;;;17.69;36.89
67740;BME280;54536;50.090;14.420;2023-03-20T15:25:44;99445.56;;;17.77;37.16
67740;BME280;54536;50.090;14.420;2023-03-20T15:28:24;99436.66;;;17.70;37.00
67740;BME280;54536;50.090;14.420;2023-03-20T15:30:55;99447.94;;;17.72;36.46
67740;BME280;54536;50.090;14.420;2023-03-20T15:33:23;99438.75;;;17.60;36.25
67740;BME280;54536;50.090;14.420;2023-03-20T15:35:51;99446.81;;;17.67;36.73
67740;BME280;54536;50.090;14.420;2023-03-20T15:38:19;99449.63;;;17.50;36.69